Time;durP1;ratioP1;P1;durP2;ratioP2;P2;SDS_P1;SDS_P2;PMS_P1;PMS_P2;Temp;Humidity;BMP_temperature;BMP_pressure;BME280_temperature;BME280_humidity;BME280_pressure;Samples;Min_cycle;Max_cycle;Signal;HPM_P1;HPM_P2
2023/05/03 00:01:38;;;;;;;6.80;2.90;;;7.90;99.90;;;;;;5019155;28;20034;-82
2023/05/03 00:04:03;;;;;;;5.53;2.22;;;7.80;99.90;;;;;;5018468;28;20045;-82
2023/05/03 00:06:30;;;;;;;7.00;2.60;;;7.80;99.90;;;;;;5003820;28;20042;-82
2023/05/03 00:08:56;;;;;;;4.95;2.28;;;7.80;99.90;;;;;;4987744;28;20045;-82
2023/05/03 00:11:21;;;;;;;5.85;2.63;;;7.80;99.90;;;;;;5006969;28;20132;-81
2023/05/03 00:13:47;;;;;;;6.13;2.72;;;7.80;99.90;;;;;;4995487;28;20037;-81
2023/05/03 00:16:13;;;;;;;7.32;2.70;;;7.80;99.90;;;;;;5001214;28;20053;-81
2023/05/03 00:18:39;;;;;;;6.45;2.67;;;7.70;99.90;;;;;;4996451;28;20056;-82
2023/05/03 00:21:04;;;;;;;8.55;2.88;;;7.70;99.90;;;;;;5012742;28;20049;-82
2023/05/03 00:23:30;;;;;;;6.35;2.40;;;7.70;99.90;;;;;;5005518;28;20054;-81
2023/05/03 00:25:57;;;;;;;4.15;2.45;;;7.70;99.90;;;;;;5019670;28;20049;-82
2023/05/03 00:28:24;;;;;;;7.53;2.70;;;7.70;99.90;;;;;;5016433;28;20034;-82
2023/05/03 00:30:51;;;;;;;6.03;2.28;;;7.70;99.90;;;;;;5012802;28;20144;-81
2023/05/03 00:33:17;;;;;;;5.63;2.70;;;7.70;99.90;;;;;;5013266;28;20052;-81
2023/05/03 00:35:43;;;;;;;7.10;2.40;;;7.70;99.90;;;;;;5020954;28;20042;-81
2023/05/03 00:38:09;;;;;;;9.77;2.83;;;7.50;99.90;;;;;;5019075;28;20045;-81
2023/05/03 00:40:35;;;;;;;5.72;2.58;;;7.60;99.90;;;;;;5018034;28;20042;-81
2023/05/03 00:43:01;;;;;;;5.55;3.00;;;7.60;99.90;;;;;;5005236;28;20047;-82
2023/05/03 00:45:29;;;;;;;5.28;3.20;;;7.90;99.90;;;;;;5015422;28;20042;-82
2023/05/03 00:47:55;;;;;;;5.68;2.75;;;7.60;99.90;;;;;;5019688;28;20037;-82
2023/05/03 00:50:21;;;;;;;4.32;2.40;;;7.50;99.90;;;;;;5014397;28;20042;-82
2023/05/03 00:52:47;;;;;;;5.28;3.00;;;7.90;99.90;;;;;;5007652;28;20388;-82
2023/05/03 00:55:14;;;;;;;6.47;3.25;;;7.50;99.90;;;;;;5009305;28;20049;-82
2023/05/03 00:57:40;;;;;;;7.03;3.25;;;7.50;99.90;;;;;;4995215;28;20045;-82
2023/05/03 01:00:09;;;;;;;6.93;2.83;;;7.50;99.90;;;;;;4990210;28;20397;-82
2023/05/03 01:02:35;;;;;;;6.38;2.97;;;7.50;99.90;;;;;;4998045;28;20075;-82
2023/05/03 01:05:02;;;;;;;8.70;3.22;;;7.50;99.90;;;;;;5003307;28;20104;-82
2023/05/03 01:08:09;;;;;;;8.57;3.42;;;7.60;99.90;;;;;;5014551;28;20038;-82
2023/05/03 01:10:47;;;;;;;8.32;3.90;;;7.60;99.90;;;;;;4996282;28;20048;-82
2023/05/03 01:14:07;;;;;;;10.27;3.95;;;7.50;99.90;;;;;;5000801;28;20069;-82
2023/05/03 01:16:43;;;;;;;8.30;2.95;;;7.50;99.90;;;;;;4950205;28;20505;-82
2023/05/03 01:19:44;;;;;;;6.10;3.20;;;7.50;99.90;;;;;;4950109;28;20063;-82
2023/05/03 01:22:21;;;;;;;6.75;2.78;;;7.50;99.90;;;;;;4925645;28;20046;-82
2023/05/03 01:24:56;;;;;;;6.60;2.90;;;7.50;99.90;;;;;;4962303;28;20057;-82
2023/05/03 01:27:22;;;;;;;5.82;3.17;;;7.60;99.90;;;;;;4961126;28;20494;-83
2023/05/03 01:29:48;;;;;;;7.55;3.05;;;7.60;99.90;;;;;;4945137;28;20043;-82
2023/05/03 01:32:25;;;;;;;6.68;3.05;;;7.60;99.90;;;;;;4950984;28;20070;-82
2023/05/03 01:35:06;;;;;;;5.97;3.28;;;7.60;99.90;;;;;;4958723;28;20053;-82
2023/05/03 01:37:32;;;;;;;6.25;3.30;;;7.60;99.90;;;;;;4962225;28;20067;-83
2023/05/03 01:40:02;;;;;;;7.70;3.22;;;7.60;99.90;;;;;;4932320;28;20046;-83
2023/05/03 01:42:29;;;;;;;9.48;3.08;;;7.60;99.90;;;;;;4957810;28;20032;-82
2023/05/03 01:44:55;;;;;;;8.40;3.20;;;7.60;99.90;;;;;;4955001;28;20051;-82
2023/05/03 01:47:21;;;;;;;8.00;3.50;;;7.50;99.90;;;;;;4960789;28;20129;-82
2023/05/03 01:49:47;;;;;;;8.20;3.30;;;7.50;99.90;;;;;;4959145;28;20042;-82
2023/05/03 01:52:13;;;;;;;8.00;3.10;;;7.50;99.90;;;;;;5011161;28;20037;-82
2023/05/03 01:54:38;;;;;;;5.40;2.92;;;7.50;99.90;;;;;;5019729;28;20053;-82
2023/05/03 01:57:04;;;;;;;6.53;2.70;;;7.70;99.90;;;;;;5002615;28;20038;-82
2023/05/03 01:59:30;;;;;;;7.20;3.22;;;7.40;99.90;;;;;;4988902;28;20115;-82
2023/05/03 02:01:55;;;;;;;6.72;3.15;;;7.40;99.90;;;;;;4994577;28;20050;-82
2023/05/03 02:04:21;;;;;;;6.82;3.40;;;7.40;99.90;;;;;;5017072;28;20041;-82
2023/05/03 02:06:46;;;;;;;7.57;3.17;;;7.30;99.90;;;;;;4985108;28;20080;-82
2023/05/03 02:09:12;;;;;;;6.78;3.25;;;7.30;99.90;;;;;;5005714;28;20083;-83
2023/05/03 02:11:38;;;;;;;8.77;3.67;;;7.20;99.90;;;;;;5005781;28;20030;-82
2023/05/03 02:14:03;;;;;;;8.27;3.10;;;7.20;99.90;;;;;;5003661;28;20049;-82
2023/05/03 02:16:29;;;;;;;4.80;2.90;;;7.20;99.90;;;;;;4979752;28;20045;-82
2023/05/03 02:18:58;;;;;;;7.47;3.42;;;7.10;99.90;;;;;;5000350;28;20435;-82
2023/05/03 02:21:25;;;;;;;7.43;3.47;;;7.10;99.90;;;;;;5010535;28;20050;-82
2023/05/03 02:23:51;;;;;;;8.25;3.35;;;7.00;99.90;;;;;;5016432;28;20033;-83
2023/05/03 02:26:20;;;;;;;5.03;2.60;;;7.00;99.90;;;;;;5010836;28;20038;-82
2023/05/03 02:28:45;;;;;;;6.70;3.70;;;6.90;99.90;;;;;;5008594;28;20038;-83
2023/05/03 02:31:12;;;;;;;6.85;3.42;;;6.90;99.90;;;;;;5018689;28;20072;-83
2023/05/03 02:33:38;;;;;;;6.05;3.17;;;6.80;99.90;;;;;;4998851;28;20057;-82
2023/05/03 02:36:04;;;;;;;6.05;2.80;;;6.70;99.90;;;;;;4994602;28;20077;-81
2023/05/03 02:38:30;;;;;;;7.57;3.03;;;6.80;99.90;;;;;;4997660;28;20049;-82
2023/05/03 02:40:56;;;;;;;9.02;3.30;;;6.70;99.90;;;;;;4993002;28;20120;-83
2023/05/03 02:43:22;;;;;;;6.95;3.47;;;6.70;99.90;;;;;;5013029;28;20147;-83
2023/05/03 02:45:47;;;;;;;9.45;3.88;;;6.60;99.90;;;;;;5011656;28;20049;-82
2023/05/03 02:48:15;;;;;;;7.40;2.92;;;6.60;99.90;;;;;;4999841;28;20041;-83
2023/05/03 02:50:41;;;;;;;5.32;2.85;;;6.60;99.90;;;;;;4997209;28;20049;-82
2023/05/03 02:53:07;;;;;;;7.75;3.30;;;6.60;99.90;;;;;;4983967;28;20042;-83
2023/05/03 02:55:33;;;;;;;5.57;2.63;;;6.60;99.90;;;;;;5002419;28;20041;-82
2023/05/03 02:57:59;;;;;;;7.10;3.40;;;6.60;99.90;;;;;;4992272;28;20041;-83
2023/05/03 03:00:25;;;;;;;7.40;3.78;;;6.60;99.90;;;;;;5015213;28;20594;-84
2023/05/03 03:02:51;;;;;;;6.50;3.25;;;6.70;99.90;;;;;;5006806;28;20042;-82
2023/05/03 03:05:17;;;;;;;6.05;2.95;;;6.60;99.90;;;;;;4998065;28;20042;-82
2023/05/03 03:07:44;;;;;;;6.53;2.63;;;6.90;99.90;;;;;;5000621;28;20480;-83
2023/05/03 03:10:10;;;;;;;8.45;3.33;;;6.70;99.90;;;;;;5001719;28;20029;-82
2023/05/03 03:12:36;;;;;;;4.53;3.03;;;6.60;99.90;;;;;;4992338;28;20052;-83
2023/05/03 03:15:02;;;;;;;8.63;3.72;;;6.60;99.90;;;;;;5021571;28;20424;-83
2023/05/03 03:17:28;;;;;;;6.78;3.42;;;6.60;99.90;;;;;;5017037;28;20034;-83
2023/05/03 03:19:54;;;;;;;5.95;3.40;;;6.60;99.90;;;;;;5015503;28;20042;-83
2023/05/03 03:22:20;;;;;;;7.90;3.85;;;6.60;99.90;;;;;;4995888;28;20455;-83
2023/05/03 03:24:45;;;;;;;8.18;4.10;;;6.60;99.90;;;;;;5011504;28;20125;-83
2023/05/03 03:27:11;;;;;;;9.35;3.83;;;6.60;99.90;;;;;;5010984;28;20050;-82
2023/05/03 03:29:36;;;;;;;9.13;3.63;;;6.50;99.90;;;;;;5019302;28;20096;-83
2023/05/03 03:32:02;;;;;;;11.20;3.50;;;6.60;99.90;;;;;;4984723;28;20040;-83
2023/05/03 03:34:28;;;;;;;7.72;3.38;;;6.60;99.90;;;;;;5017917;28;20496;-83
2023/05/03 03:36:54;;;;;;;10.68;3.60;;;6.60;99.90;;;;;;4999387;28;20037;-80
2023/05/03 03:39:19;;;;;;;5.47;2.80;;;6.60;99.90;;;;;;5020570;28;20118;-83
2023/05/03 03:41:45;;;;;;;5.78;2.50;;;6.60;99.90;;;;;;5019982;28;20109;-83
2023/05/03 03:44:11;;;;;;;4.10;2.35;;;6.60;99.90;;;;;;5001526;28;20041;-83
2023/05/03 03:46:36;;;;;;;8.07;3.47;;;6.70;99.90;;;;;;5001044;28;20045;-83
2023/05/03 03:49:02;;;;;;;5.85;2.90;;;6.80;99.90;;;;;;5024109;28;20397;-83
2023/05/03 03:51:28;;;;;;;5.13;2.42;;;6.70;99.90;;;;;;5022526;28;20038;-83
2023/05/03 03:53:53;;;;;;;6.20;2.72;;;6.70;99.90;;;;;;5022363;28;20073;-83
2023/05/03 03:56:20;;;;;;;6.50;3.03;;;6.80;99.90;;;;;;4999124;28;20064;-83
2023/05/03 03:58:46;;;;;;;3.80;2.08;;;6.80;99.90;;;;;;4999833;28;20100;-83
2023/05/03 04:01:12;;;;;;;7.13;2.78;;;6.80;99.90;;;;;;4996620;28;20049;-83
2023/05/03 04:03:37;;;;;;;5.47;3.00;;;6.90;99.90;;;;;;4999888;28;20046;-83
2023/05/03 04:06:03;;;;;;;6.50;3.55;;;6.90;99.90;;;;;;4999830;28;20041;-83
2023/05/03 04:08:29;;;;;;;6.10;3.08;;;6.90;99.90;;;;;;5003323;28;20064;-83
2023/05/03 04:10:55;;;;;;;7.43;3.22;;;6.90;99.90;;;;;;4989241;28;20676;-83
2023/05/03 04:13:20;;;;;;;6.45;3.35;;;6.90;99.90;;;;;;4992318;28;20121;-83
2023/05/03 04:15:46;;;;;;;7.68;3.60;;;6.90;99.90;;;;;;4997743;28;20153;-82
2023/05/03 04:18:11;;;;;;;6.40;3.38;;;6.80;99.90;;;;;;5005723;28;20056;-83
2023/05/03 04:20:37;;;;;;;4.57;2.78;;;6.80;99.90;;;;;;5001619;28;20133;-83
2023/05/03 04:23:03;;;;;;;8.05;2.45;;;6.80;99.90;;;;;;4999885;28;20516;-82
2023/05/03 04:25:30;;;;;;;6.25;2.80;;;6.80;99.90;;;;;;5008253;28;20038;-83
2023/05/03 04:27:57;;;;;;;5.68;3.00;;;6.80;99.90;;;;;;5020656;28;20040;-83
2023/05/03 04:30:23;;;;;;;5.20;3.15;;;6.80;99.90;;;;;;5018008;28;20049;-82
2023/05/03 04:32:52;;;;;;;6.80;2.97;;;6.80;99.90;;;;;;4996235;28;20135;-83
2023/05/03 04:35:18;;;;;;;5.78;2.80;;;6.80;99.90;;;;;;4996741;28;20038;-83
2023/05/03 04:37:44;;;;;;;5.93;3.22;;;6.90;99.90;;;;;;5004654;28;20040;-83
2023/05/03 04:40:11;;;;;;;5.22;2.65;;;6.90;99.90;;;;;;5014863;28;20044;-83
2023/05/03 04:42:37;;;;;;;5.28;2.83;;;6.90;99.90;;;;;;5016552;28;20373;-83
2023/05/03 04:45:05;;;;;;;4.38;2.42;;;6.90;99.90;;;;;;5018394;28;20476;-82
2023/05/03 04:47:32;;;;;;;5.80;2.97;;;6.90;99.90;;;;;;5006206;28;20046;-82
2023/05/03 04:49:58;;;;;;;6.30;3.08;;;7.00;99.90;;;;;;4992677;28;20038;-83
2023/05/03 04:52:25;;;;;;;6.00;3.58;;;7.00;99.90;;;;;;5005463;28;20049;-83
2023/05/03 04:54:51;;;;;;;9.00;3.05;;;7.00;99.90;;;;;;5017247;28;20037;-83
2023/05/03 04:57:16;;;;;;;6.35;2.90;;;7.00;99.90;;;;;;5012797;28;20507;-83
2023/05/03 04:59:42;;;;;;;6.93;3.00;;;7.00;99.90;;;;;;4999031;28;20053;-83
2023/05/03 05:02:09;;;;;;;5.13;3.17;;;7.00;99.90;;;;;;4989936;28;20048;-82
2023/05/03 05:04:35;;;;;;;4.72;2.50;;;7.00;99.90;;;;;;5007260;28;20051;-83
2023/05/03 05:07:00;;;;;;;5.47;2.83;;;7.00;99.90;;;;;;5022359;28;20033;-83
2023/05/03 05:09:27;;;;;;;5.13;2.55;;;7.10;99.90;;;;;;4998303;28;20068;-82
2023/05/03 05:11:53;;;;;;;4.95;2.53;;;7.50;99.90;;;;;;4996759;28;20107;-83
2023/05/03 05:14:19;;;;;;;4.47;2.72;;;7.10;99.90;;;;;;5001082;28;21519;-83
2023/05/03 05:16:45;;;;;;;5.88;2.95;;;7.20;99.90;;;;;;5017499;28;20041;-83
2023/05/03 05:19:11;;;;;;;4.57;2.50;;;7.20;99.90;;;;;;5016127;28;20107;-83
2023/05/03 05:21:38;;;;;;;6.47;2.90;;;7.20;99.90;;;;;;5015607;28;20147;-82
2023/05/03 05:24:04;;;;;;;6.00;2.38;;;7.20;99.90;;;;;;4990988;28;20041;-83
2023/05/03 05:26:30;;;;;;;5.45;2.55;;;7.30;99.90;;;;;;5011421;28;20050;-83
2023/05/03 05:28:55;;;;;;;5.20;2.65;;;7.30;99.90;;;;;;5016616;28;20069;-83
2023/05/03 05:31:22;;;;;;;7.00;2.90;;;7.40;99.90;;;;;;5019959;28;20428;-83
2023/05/03 05:33:49;;;;;;;8.15;2.58;;;7.40;99.90;;;;;;5026269;28;20403;-82
2023/05/03 05:36:15;;;;;;;7.25;2.53;;;7.40;99.90;;;;;;5015822;28;20099;-83
2023/05/03 05:38:41;;;;;;;4.80;1.90;;;7.50;99.90;;;;;;5019382;28;20507;-83
2023/05/03 05:41:07;;;;;;;4.00;2.00;;;7.50;99.90;;;;;;5023395;28;20032;-83
2023/05/03 05:43:32;;;;;;;5.85;2.20;;;7.60;99.90;;;;;;5019750;28;20117;-82
2023/05/03 05:45:58;;;;;;;5.28;2.35;;;7.60;99.90;;;;;;4983804;28;20112;-85
2023/05/03 05:48:25;;;;;;;6.03;2.45;;;7.70;99.90;;;;;;5003477;28;20042;-84
2023/05/03 05:50:50;;;;;;;4.43;1.75;;;7.70;99.90;;;;;;5003516;28;20049;-85
2023/05/03 05:53:16;;;;;;;8.63;2.45;;;7.70;99.90;;;;;;5004989;28;20034;-84
2023/05/03 05:55:42;;;;;;;4.95;2.10;;;7.80;99.90;;;;;;5018272;28;20547;-85
2023/05/03 05:58:08;;;;;;;3.30;1.75;;;7.80;99.90;;;;;;5005623;28;20045;-84
2023/05/03 06:00:35;;;;;;;3.92;1.58;;;7.90;99.90;;;;;;5022688;28;20072;-84
2023/05/03 06:03:00;;;;;;;3.78;1.70;;;7.90;99.90;;;;;;5005713;28;20093;-85
2023/05/03 06:05:26;;;;;;;3.60;1.63;;;8.00;99.90;;;;;;5018051;28;20192;-85
2023/05/03 06:07:52;;;;;;;5.40;2.03;;;8.00;99.90;;;;;;5020671;28;20060;-85
2023/05/03 06:10:18;;;;;;;6.93;1.50;;;8.10;99.90;;;;;;5004358;28;20041;-85
2023/05/03 06:12:43;;;;;;;6.28;1.45;;;8.10;99.90;;;;;;5021337;28;20473;-85
2023/05/03 06:15:09;;;;;;;2.78;1.50;;;8.10;99.90;;;;;;5018088;28;20552;-85
2023/05/03 06:17:35;;;;;;;5.40;1.60;;;8.10;99.90;;;;;;4983784;28;20435;-85
2023/05/03 06:20:01;;;;;;;4.75;1.60;;;8.20;99.90;;;;;;5014368;28;20034;-85
2023/05/03 06:22:27;;;;;;;3.97;1.88;;;8.20;99.90;;;;;;4992861;28;20080;-85
2023/05/03 06:24:54;;;;;;;5.57;1.83;;;8.20;99.90;;;;;;5031138;28;20372;-89
2023/05/03 06:27:19;;;;;;;4.00;2.00;;;8.20;99.90;;;;;;5028976;28;20452;-85
2023/05/03 06:29:46;;;;;;;6.47;2.00;;;8.30;99.90;;;;;;5005999;28;20038;-86
2023/05/03 06:32:14;;;;;;;6.18;1.77;;;8.30;99.90;;;;;;5010994;28;20033;-85
2023/05/03 06:34:39;;;;;;;4.43;1.80;;;8.40;99.90;;;;;;5010391;28;20665;-85
2023/05/03 06:37:05;;;;;;;4.55;1.52;;;8.40;99.90;;;;;;5015471;28;20033;-85
2023/05/03 06:39:31;;;;;;;4.05;2.03;;;8.50;99.90;;;;;;4995583;28;20248;-85
2023/05/03 06:41:57;;;;;;;4.25;1.95;;;8.50;99.90;;;;;;5005903;28;20037;-85
2023/05/03 06:44:22;;;;;;;5.25;1.83;;;8.50;99.90;;;;;;5005623;28;20070;-84
2023/05/03 06:46:48;;;;;;;4.75;1.58;;;8.50;99.90;;;;;;4984119;28;20120;-87
2023/05/03 06:49:14;;;;;;;2.90;1.38;;;8.60;99.90;;;;;;5003009;28;20053;-86
2023/05/03 06:51:40;;;;;;;7.28;1.60;;;8.70;99.90;;;;;;4995508;28;20099;-86
2023/05/03 06:54:08;;;;;;;5.53;1.42;;;8.70;99.90;;;;;;5024824;28;20041;-85
2023/05/03 06:56:34;;;;;;;6.07;1.25;;;8.80;99.90;;;;;;5004954;28;20544;-85
2023/05/03 06:59:00;;;;;;;6.45;1.15;;;8.80;99.90;;;;;;5019954;28;20060;-84
2023/05/03 07:01:26;;;;;;;3.15;1.52;;;8.90;99.90;;;;;;5001324;28;20045;-85
2023/05/03 07:03:52;;;;;;;4.90;1.45;;;8.90;99.90;;;;;;4999121;28;20425;-85
2023/05/03 07:06:18;;;;;;;3.95;1.10;;;9.00;99.90;;;;;;5005166;28;20131;-85
2023/05/03 07:08:44;;;;;;;3.53;1.13;;;9.10;99.90;;;;;;5007363;28;20038;-85
2023/05/03 07:11:10;;;;;;;3.20;1.13;;;9.10;99.90;;;;;;4993029;28;20029;-84
2023/05/03 07:13:38;;;;;;;2.47;0.90;;;9.20;99.90;;;;;;5013636;28;20026;-85
2023/05/03 07:16:04;;;;;;;5.15;0.90;;;9.20;99.90;;;;;;5002601;28;20041;-85
2023/05/03 07:18:30;;;;;;;4.40;1.10;;;9.20;99.90;;;;;;5012417;28;20088;-85
2023/05/03 07:20:56;;;;;;;1.60;0.90;;;9.30;99.90;;;;;;5012411;28;20437;-85
2023/05/03 07:23:21;;;;;;;2.70;0.90;;;9.30;99.90;;;;;;5021016;28;20120;-88
2023/05/03 07:25:50;;;;;;;2.72;1.10;;;9.30;99.90;;;;;;5021246;28;20064;-87
2023/05/03 07:28:16;;;;;;;3.28;1.05;;;9.50;99.90;;;;;;5016278;28;20073;-87
2023/05/03 07:30:41;;;;;;;4.68;1.35;;;9.40;99.90;;;;;;5020017;28;20073;-85
2023/05/03 07:33:07;;;;;;;4.18;1.00;;;9.50;99.90;;;;;;4999806;28;20456;-85
2023/05/03 07:35:33;;;;;;;2.25;0.77;;;9.50;99.90;;;;;;4994010;28;20050;-84
2023/05/03 07:37:58;;;;;;;5.30;1.20;;;9.60;99.90;;;;;;5003352;28;20157;-84
2023/05/03 07:40:24;;;;;;;5.30;1.10;;;9.60;99.90;;;;;;5009226;28;20508;-82
2023/05/03 07:42:50;;;;;;;2.38;1.05;;;9.60;99.90;;;;;;5015572;28;20365;-83
2023/05/03 07:45:15;;;;;;;2.20;0.80;;;9.60;99.90;;;;;;5019794;28;20041;-84
2023/05/03 07:47:41;;;;;;;3.85;0.90;;;9.60;99.90;;;;;;5007347;28;20042;-82
2023/05/03 07:50:08;;;;;;;3.03;0.98;;;9.70;99.90;;;;;;5015394;28;20029;-82
2023/05/03 07:52:37;;;;;;;3.88;1.10;;;9.70;99.90;;;;;;4989418;28;20120;-81
2023/05/03 07:55:04;;;;;;;3.05;0.80;;;9.80;99.90;;;;;;4994012;28;20389;-81
2023/05/03 07:57:29;;;;;;;2.42;1.02;;;9.80;99.90;;;;;;4981004;28;20045;-81
2023/05/03 07:59:55;;;;;;;2.15;0.90;;;9.90;99.90;;;;;;5001350;28;20042;-81
2023/05/03 08:02:21;;;;;;;5.13;0.80;;;9.90;99.90;;;;;;5011784;28;20469;-81
2023/05/03 08:04:47;;;;;;;2.28;0.73;;;10.00;99.90;;;;;;4981276;28;20154;-81
2023/05/03 08:07:13;;;;;;;3.90;0.80;;;10.10;99.90;;;;;;5005770;28;21465;-81
2023/05/03 08:09:39;;;;;;;2.78;1.10;;;10.10;99.90;;;;;;5019566;28;20038;-81
2023/05/03 08:12:05;;;;;;;4.55;0.90;;;10.00;99.90;;;;;;5017648;28;20042;-81
2023/05/03 08:14:32;;;;;;;1.70;0.90;;;10.10;99.90;;;;;;5017708;28;20080;-82
2023/05/03 08:16:58;;;;;;;2.92;1.35;;;10.00;99.90;;;;;;5015802;28;20034;-81
2023/05/03 08:19:24;;;;;;;2.60;0.90;;;10.10;99.90;;;;;;4998194;28;20046;-82
2023/05/03 08:21:51;;;;;;;5.28;1.05;;;10.10;99.90;;;;;;5005533;28;20488;-82
2023/05/03 08:24:16;;;;;;;5.43;0.90;;;10.20;99.90;;;;;;5021237;28;20129;-81
2023/05/03 08:26:44;;;;;;;2.85;0.95;;;10.20;99.90;;;;;;5021089;28;20477;-82
2023/05/03 08:29:09;;;;;;;3.72;0.80;;;10.30;99.90;;;;;;5024863;28;20046;-81
2023/05/03 08:31:35;;;;;;;2.88;1.17;;;10.30;99.90;;;;;;4997952;28;20040;-81
2023/05/03 08:34:02;;;;;;;2.28;0.88;;;10.30;99.90;;;;;;4991782;28;20041;-81
2023/05/03 08:36:28;;;;;;;4.10;1.17;;;10.40;99.90;;;;;;5001929;28;20053;-81
2023/05/03 08:38:54;;;;;;;3.45;1.50;;;10.40;99.90;;;;;;4990130;28;20108;-81
2023/05/03 08:41:30;;;;;;;2.53;1.00;;;10.50;99.90;;;;;;4996409;28;20050;-81
2023/05/03 08:43:57;;;;;;;2.50;0.90;;;10.60;99.90;;;;;;5019938;28;20033;-81
2023/05/03 08:46:24;;;;;;;5.05;1.23;;;10.60;99.90;;;;;;4997449;28;20042;-81
2023/05/03 08:48:51;;;;;;;3.42;1.15;;;10.60;99.90;;;;;;5016100;28;20049;-81
2023/05/03 08:51:18;;;;;;;2.90;1.23;;;10.70;99.90;;;;;;4997787;28;20080;-81
2023/05/03 08:53:44;;;;;;;4.03;1.00;;;10.70;99.90;;;;;;4998583;28;20542;-81
2023/05/03 08:56:12;;;;;;;5.63;1.30;;;10.80;99.90;;;;;;5002084;28;20106;-81
2023/05/03 08:58:38;;;;;;;3.63;1.58;;;10.90;99.90;;;;;;5014801;28;20052;-81
2023/05/03 09:01:05;;;;;;;3.67;1.38;;;10.90;99.90;;;;;;5022783;28;20033;-82
2023/05/03 09:03:32;;;;;;;3.53;1.15;;;11.00;99.90;;;;;;5011891;28;20053;-82
2023/05/03 09:06:01;;;;;;;5.75;1.30;;;11.00;99.90;;;;;;5003387;28;20048;-81
2023/05/03 09:08:30;;;;;;;2.85;1.52;;;11.10;99.90;;;;;;5014545;28;20488;-81
2023/05/03 09:10:56;;;;;;;5.95;1.50;;;11.20;99.90;;;;;;5013489;28;20080;-82
2023/05/03 09:13:31;;;;;;;6.80;1.30;;;11.30;99.90;;;;;;4997438;28;20583;-81
2023/05/03 09:15:57;;;;;;;3.90;1.20;;;11.40;99.90;;;;;;4995697;28;20042;-82
2023/05/03 09:18:23;;;;;;;3.97;1.85;;;11.50;99.90;;;;;;5016492;28;20053;-81
2023/05/03 09:20:50;;;;;;;2.83;1.30;;;11.80;99.90;;;;;;4992684;28;20439;-81
2023/05/03 09:23:29;;;;;;;5.43;1.40;;;11.80;99.90;;;;;;5015069;28;20072;-81
2023/05/03 09:25:56;;;;;;;6.25;1.73;;;12.10;99.90;;;;;;5023347;28;20086;-81
2023/05/03 09:28:22;;;;;;;4.30;1.58;;;12.50;99.90;;;;;;4994704;28;20048;-81
2023/05/03 09:30:49;;;;;;;4.78;1.40;;;12.70;99.90;;;;;;5018744;28;20041;-82
2023/05/03 09:33:20;;;;;;;5.05;1.55;;;12.90;99.90;;;;;;5017160;28;20045;-82
2023/05/03 09:36:01;;;;;;;4.60;1.40;;;13.00;99.90;;;;;;4989551;28;20049;-80
2023/05/03 09:38:32;;;;;;;4.32;1.50;;;13.20;99.90;;;;;;4996223;28;20476;-81
2023/05/03 09:40:58;;;;;;;3.88;2.03;;;13.30;99.90;;;;;;5013645;28;20045;-81
2023/05/03 09:43:24;;;;;;;3.95;1.58;;;13.30;99.90;;;;;;4996886;28;20053;-82
2023/05/03 09:45:50;;;;;;;6.00;1.67;;;13.30;99.90;;;;;;4995509;28;20041;-81
2023/05/03 09:48:17;;;;;;;3.42;1.48;;;13.20;99.90;;;;;;4986767;28;20048;-81
2023/05/03 09:50:43;;;;;;;4.60;1.40;;;13.10;99.90;;;;;;5012918;28;20045;-81
2023/05/03 09:53:09;;;;;;;5.47;1.98;;;13.10;99.90;;;;;;5019167;28;20045;-82
2023/05/03 09:55:39;;;;;;;6.18;1.83;;;13.10;99.90;;;;;;4995462;28;20121;-81
2023/05/03 09:58:06;;;;;;;3.05;1.20;;;13.10;99.90;;;;;;5019422;28;20120;-82
2023/05/03 10:00:39;;;;;;;3.05;1.38;;;13.10;99.90;;;;;;5014681;28;20041;-82
2023/05/03 10:03:10;;;;;;;6.80;1.80;;;13.20;99.90;;;;;;5004074;28;20073;-82
2023/05/03 10:05:54;;;;;;;3.33;1.60;;;13.40;99.90;;;;;;5013473;28;20045;-81
2023/05/03 10:08:34;;;;;;;5.85;1.60;;;13.30;99.90;;;;;;5019133;28;20056;-82
2023/05/03 10:11:03;;;;;;;4.40;1.60;;;13.20;99.90;;;;;;4999456;28;20560;-81
2023/05/03 10:13:29;;;;;;;4.18;1.58;;;13.10;99.90;;;;;;5017573;28;20030;-82
2023/05/03 10:16:11;;;;;;;3.10;1.40;;;13.10;99.90;;;;;;4986203;28;20531;-82
2023/05/03 10:18:44;;;;;;;3.65;2.00;;;13.20;99.90;;;;;;5004391;28;20045;-82
2023/05/03 10:21:24;;;;;;;6.30;1.65;;;13.10;99.90;;;;;;5012269;28;20202;-82
2023/05/03 10:24:13;;;;;;;5.88;1.92;;;13.10;99.90;;;;;;4997032;28;20037;-82
2023/05/03 10:26:40;;;;;;;4.50;1.80;;;13.20;99.90;;;;;;4999242;28;20044;-82
2023/05/03 10:29:32;;;;;;;5.57;1.45;;;13.20;99.90;;;;;;5009131;28;20044;-81
2023/05/03 10:31:58;;;;;;;7.07;2.05;;;13.30;99.90;;;;;;5005203;28;20045;-82
2023/05/03 10:34:29;;;;;;;5.47;1.80;;;13.50;99.90;;;;;;4995794;28;20053;-81
2023/05/03 10:36:55;;;;;;;3.92;1.52;;;13.70;99.90;;;;;;5018484;28;20045;-82
2023/05/03 10:39:21;;;;;;;4.05;1.77;;;13.90;99.90;;;;;;4997927;28;20081;-81
2023/05/03 10:41:58;;;;;;;5.63;1.63;;;14.10;99.90;;;;;;5000760;28;20034;-82
2023/05/03 10:44:38;;;;;;;4.90;1.77;;;14.10;99.90;;;;;;5005342;28;20092;-82
2023/05/03 10:47:13;;;;;;;4.28;1.60;;;14.20;99.90;;;;;;5019342;28;20935;-80
2023/05/03 10:49:38;;;;;;;3.95;1.45;;;14.20;99.90;;;;;;4995620;28;20135;-82
2023/05/03 10:52:39;;;;;;;5.32;1.90;;;14.30;99.90;;;;;;5012788;28;20065;-82
2023/05/03 10:55:09;;;;;;;3.15;1.73;;;14.40;99.90;;;;;;5012792;28;20065;-82
2023/05/03 10:57:36;;;;;;;5.03;1.50;;;14.50;99.70;;;;;;5007482;28;20491;-82
2023/05/03 11:00:07;;;;;;;3.85;1.55;;;14.60;99.90;;;;;;5020698;28;20045;-82
2023/05/03 11:02:38;;;;;;;4.47;1.80;;;14.70;99.90;;;;;;4978402;28;20046;-82
2023/05/03 11:05:07;;;;;;;5.78;1.90;;;14.90;99.90;;;;;;5001214;28;20045;-82
2023/05/03 11:07:33;;;;;;;6.72;2.03;;;15.10;99.90;;;;;;5003884;28;20038;-83
2023/05/03 11:09:59;;;;;;;4.70;1.90;;;15.20;99.90;;;;;;4998211;28;20125;-82
2023/05/03 11:12:24;;;;;;;7.20;1.65;;;15.30;99.90;;;;;;5006273;28;20045;-82
2023/05/03 11:14:50;;;;;;;3.65;1.52;;;15.30;98.50;;;;;;5007702;28;20435;-83
2023/05/03 11:17:16;;;;;;;7.53;1.67;;;15.10;99.90;;;;;;5024998;28;20037;-83
2023/05/03 11:19:45;;;;;;;3.83;1.70;;;15.00;99.90;;;;;;4997809;28;20373;-83
2023/05/03 11:22:11;;;;;;;6.07;1.45;;;15.00;99.30;;;;;;5018916;28;20042;-83
2023/05/03 11:24:37;;;;;;;3.70;1.40;;;15.10;99.80;;;;;;5024426;28;20048;-83
2023/05/03 11:27:03;;;;;;;7.45;1.58;;;15.40;99.90;;;;;;4984111;28;20046;-80
2023/05/03 11:29:30;;;;;;;6.13;1.52;;;15.60;99.70;;;;;;5021521;28;20034;-80
2023/05/03 11:31:56;;;;;;;4.68;1.70;;;15.70;98.80;;;;;;5019811;28;20038;-80
2023/05/03 11:34:21;;;;;;;4.05;1.40;;;15.90;98.20;;;;;;5000049;28;20616;-80
2023/05/03 11:36:48;;;;;;;4.47;1.50;;;16.10;96.60;;;;;;5011773;28;20034;-80
2023/05/03 11:39:14;;;;;;;4.63;1.77;;;16.00;97.90;;;;;;5016631;28;20124;-80
2023/05/03 11:41:43;;;;;;;6.45;1.40;;;16.10;98.50;;;;;;5010848;28;20049;-80
2023/05/03 11:44:09;;;;;;;6.05;1.70;;;16.10;98.00;;;;;;4996640;28;20038;-80
2023/05/03 11:46:37;;;;;;;4.00;1.40;;;16.10;96.90;;;;;;4993134;28;20042;-80
2023/05/03 11:49:03;;;;;;;4.72;1.83;;;16.00;98.90;;;;;;5014853;28;20042;-80
2023/05/03 11:51:30;;;;;;;4.95;2.05;;;16.00;98.10;;;;;;5010209;28;20052;-81
2023/05/03 11:53:56;;;;;;;3.17;1.60;;;15.90;98.70;;;;;;4990557;28;20510;-80
2023/05/03 11:56:22;;;;;;;5.97;1.48;;;16.00;98.10;;;;;;5013306;28;20053;-81
2023/05/03 11:58:52;;;;;;;4.68;1.75;;;16.10;98.70;;;;;;4991389;28;20048;-81
2023/05/03 12:01:20;;;;;;;3.85;1.40;;;16.20;99.20;;;;;;4990511;28;20068;-81
2023/05/03 12:03:48;;;;;;;4.10;1.80;;;16.20;98.90;;;;;;5026363;28;20025;-81
2023/05/03 12:06:15;;;;;;;4.25;1.80;;;16.30;99.70;;;;;;5015135;28;20045;-81
2023/05/03 12:08:41;;;;;;;5.03;1.73;;;16.20;97.30;;;;;;5013215;28;20038;-81
2023/05/03 12:11:06;;;;;;;5.60;1.60;;;16.40;97.50;;;;;;5011963;28;20083;-81
2023/05/03 12:13:34;;;;;;;4.47;1.90;;;16.40;98.00;;;;;;5008122;28;20040;-81
2023/05/03 12:16:02;;;;;;;7.47;1.80;;;16.60;97.90;;;;;;5010129;28;20117;-81
2023/05/03 12:18:55;;;;;;;6.32;2.00;;;16.70;97.60;;;;;;4984804;28;20045;-81
2023/05/03 12:21:22;;;;;;;3.97;1.77;;;16.70;99.00;;;;;;5002070;28;20085;-81
2023/05/03 12:23:48;;;;;;;3.58;1.58;;;16.40;97.60;;;;;;5024268;28;20042;-81
2023/05/03 12:26:15;;;;;;;5.25;1.70;;;16.40;97.90;;;;;;5021482;28;20060;-81
2023/05/03 12:28:41;;;;;;;4.53;1.70;;;16.50;99.40;;;;;;5022832;28;20042;-81
2023/05/03 12:31:07;;;;;;;4.80;2.35;;;16.50;98.20;;;;;;5022236;28;20088;-81
2023/05/03 12:33:32;;;;;;;5.00;2.00;;;16.60;99.20;;;;;;5007995;28;20069;-81
2023/05/03 12:35:58;;;;;;;4.53;2.13;;;16.60;98.60;;;;;;4999758;28;20037;-81
2023/05/03 12:38:24;;;;;;;5.95;1.95;;;16.70;98.60;;;;;;5000259;28;20076;-81
2023/05/03 12:40:50;;;;;;;5.70;1.85;;;16.80;97.90;;;;;;5004187;28;20096;-80
2023/05/03 12:43:15;;;;;;;4.20;1.70;;;16.90;97.20;;;;;;5005017;28;20048;-83
2023/05/03 12:45:41;;;;;;;2.38;1.40;;;17.00;97.40;;;;;;5015988;28;20493;-82
2023/05/03 12:48:07;;;;;;;3.80;1.77;;;17.10;97.10;;;;;;5000876;28;20041;-83
2023/05/03 12:50:33;;;;;;;5.95;2.00;;;17.20;97.90;;;;;;5005031;28;20093;-84
2023/05/03 12:52:59;;;;;;;3.65;1.40;;;17.20;96.50;;;;;;5020117;28;20500;-82
2023/05/03 12:55:25;;;;;;;4.22;1.88;;;17.20;96.00;;;;;;5007649;28;20081;-82